Detall de PIREP

Printer-friendly versionPDF version

[2014/03/22 07:50:00]
Flight IATA:CT0001
Pilot Number:041
Company ICAO:CAT
Aircraft Type:BE20/A
PAX:2
Departing Airport: LEGE
Destination Airport: LELC
Alternate Airport:LEAL
Online: VATSIM
Route:MAMUK H110 SEROX A34 ALT
Flight Level:FL130
No Slew and time accel
No pause
Crash detect
Detect pilot in Cockpit between each 30 and 45 minutes
07:50 Zero fuel Weight: 8738 Lbs, Fuel Weight: 3677 Lbs
07:50 VATSIM:LEGE 220730Z 21011KT 9999 SCT025 12/11 Q1012
07:50 VATSIM:LELC 220700Z 27003KT 2000 BR SCT005 13/13 Q1016 NOSIG
07:51 VOICE CATALONIAN
07:59 Parking Brakes off
08:04 Take-off
08:04 Take off Weight: 12378 Lbs
08:04 Wind: 212º @ 012 Knots Heading: 195º
08:04 POS N41º 54´ 06´´ E002º 45´ 39´´
08:04 Gear Up: 141 Knots
08:04 Flaps:1 at 141 Knots
08:04 Flaps:0 at 144 Knots
08:16 TOC
08:16 Fuel Weight: 3470 Lb
08:19 Wind:275º@021 Knots Heading: 260º Ground Speed: 225 Knots Altitude 12988 ft
08:34 Wind:318º@021 Knots Heading: 242º Ground Speed: 239 Knots Altitude 12992 ft
08:49 Wind:278º@017 Knots Heading: 200º Ground Speed: 246 Knots Altitude 13047 ft
09:04 Wind:351º@021 Knots Heading: 198º Ground Speed: 266 Knots Altitude 13021 ft
09:08 TOD
09:08 Fuel Weight: 2844 Lb
09:19 Wind:240º@007 Knots Heading: 184º Ground Speed: 223 Knots Altitude 6935 ft
09:33 Flaps:1 at 184 Knots
09:34 Wind:347º@002 Knots Heading: 248º Ground Speed: 180 Knots Altitude 1473 ft
09:34 Gear Down: 162 Knots
09:34 Flaps:2 at 155 Knots
09:35 TouchDown:Rate -146 ft/min Speed: 113 Knots
09:35 VATSIM:LELC 220900Z VRB02KT 4000 BR FEW005 17/14 Q1015 NOSIG
09:35 Land
09:35 Wind:357º@002 Knots
09:35 Heading: 222º
09:35 Flight Duration: 01:31
09:35 Landing Weight: 11350 Lbs
09:35 POS N37º 46´ 18´´ W000º 48´ 58´´
09:38 Parking brakes on
09:38 Block to Block Duration: 01:39
09:38 Final Fuel: 2605 Lbls
09:38 Spent Fuel: 1071 Lbls
09:38 Flight Length: 350 NM
09:38 TOD Land Length: 100 NM

Exportar CSV

Powered by Drupal - Modified by Danger4k